Kawambwa Airport


Codes: FLKB/
Name: Kawambwa Airport
City: Kawambwa
Country: Zambia
Elevation: 4640 ft.

Photos at Kawambwa Airport


   Photos courtesy of SpottingLog. You can add your own sightings and photos by signing up for a free trial today.



No photos found.

Weather at Kawambwa Airport


Time (UTC)DescriptionTempratureWindCloud coverageVisibilityPressureHumidity
25-Jun-2024 12:00Clear Sky26°C7 mph, SE3%10000m1013hPa24%
25-Jun-2024 15:00Clear Sky26°C7 mph, SE3%10000m1013hPa25%
25-Jun-2024 18:00Clear Sky19°C4 mph, SE2%10000m1016hPa40%
25-Jun-2024 21:00Clear Sky14°C9 mph, SE0%10000m1018hPa53%
26-Jun-2024 00:00Clear Sky13°C7 mph, SE0%10000m1017hPa63%
26-Jun-2024 03:00Clear Sky11°C9 mph, SE0%10000m1018hPa71%
26-Jun-2024 06:00Clear Sky15°C11 mph, SE0%10000m1020hPa58%
26-Jun-2024 09:00Clear Sky24°C7 mph, SE0%10000m1017hPa32%
26-Jun-2024 12:00Clear Sky27°C4 mph, SE0%10000m1013hPa23%
26-Jun-2024 15:00Clear Sky25°C4 mph, SE0%10000m1013hPa26%
26-Jun-2024 18:00Clear Sky15°C2 mph, SE0%10000m1017hPa46%
26-Jun-2024 21:00Clear Sky14°C7 mph, SE3%10000m1018hPa52%
27-Jun-2024 00:00Clear Sky13°C9 mph, SE2%10000m1017hPa64%
27-Jun-2024 03:00Clear Sky12°C7 mph, SE0%10000m1018hPa69%
27-Jun-2024 06:00Clear Sky16°C9 mph, SE0%10000m1019hPa51%
27-Jun-2024 09:00Clear Sky25°C7 mph, SE4%10000m1017hPa28%
27-Jun-2024 12:00Clear Sky28°C7 mph, SE5%10000m1013hPa22%
27-Jun-2024 15:00Few Clouds25°C7 mph, SE12%10000m1013hPa26%
27-Jun-2024 18:00Few Clouds16°C4 mph, SE11%10000m1017hPa44%
27-Jun-2024 21:00Clear Sky15°C9 mph, SE4%10000m1018hPa49%
28-Jun-2024 00:00Clear Sky14°C9 mph, SE5%10000m1017hPa60%
28-Jun-2024 03:00Scattered Clouds12°C7 mph, SE50%10000m1018hPa71%
28-Jun-2024 06:00Broken Clouds16°C9 mph, SE60%10000m1020hPa59%
28-Jun-2024 09:00Scattered Clouds24°C7 mph, SE37%10000m1017hPa33%
28-Jun-2024 12:00Broken Clouds28°C4 mph, SE62%10000m1013hPa25%
28-Jun-2024 15:00Scattered Clouds26°C4 mph, SE50%10000m1013hPa28%
28-Jun-2024 18:00Scattered Clouds17°C4 mph, SE38%10000m1016hPa47%
28-Jun-2024 21:00Few Clouds15°C7 mph, SE12%10000m1018hPa50%
29-Jun-2024 00:00Scattered Clouds14°C7 mph, SE32%10000m1017hPa57%
29-Jun-2024 03:00Clear Sky12°C7 mph, SE10%10000m1018hPa68%
29-Jun-2024 06:00Clear Sky16°C7 mph, SE8%10000m1020hPa56%
29-Jun-2024 09:00Broken Clouds25°C4 mph, SE66%10000m1017hPa31%
29-Jun-2024 12:00Broken Clouds29°C2 mph, SW75%10000m1013hPa23%
29-Jun-2024 15:00Broken Clouds26°C4 mph, SW64%10000m1012hPa26%
29-Jun-2024 18:00Broken Clouds18°C2 mph, SE70%10000m1015hPa41%
29-Jun-2024 21:00Overcast Clouds15°C4 mph, SE97%10000m1017hPa52%
30-Jun-2024 00:00Overcast Clouds13°C4 mph, SE90%10000m1017hPa55%
30-Jun-2024 03:00Overcast Clouds13°C7 mph, SE96%10000m1017hPa62%
30-Jun-2024 06:00Overcast Clouds17°C7 mph, SE97%10000m1018hPa52%
30-Jun-2024 09:00Overcast Clouds26°C4 mph, SE92%10000m1016hPa28%